sensor_id;sensor_type;location;lat;lon;timestamp;temperature;humidity
44851;DHT22;30583;48.714;9.386;2023-04-15T00:00:28;8.70;63.10
44851;DHT22;30583;48.714;9.386;2023-04-15T00:02:54;8.80;63.00
44851;DHT22;30583;48.714;9.386;2023-04-15T00:05:20;8.80;62.80
44851;DHT22;30583;48.714;9.386;2023-04-15T00:07:46;8.50;63.20
44851;DHT22;30583;48.714;9.386;2023-04-15T00:10:12;8.70;63.20
44851;DHT22;30583;48.714;9.386;2023-04-15T00:12:39;8.20;64.20
44851;DHT22;30583;48.714;9.386;2023-04-15T00:15:06;8.80;63.00
44851;DHT22;30583;48.714;9.386;2023-04-15T00:17:32;8.90;62.70
44851;DHT22;30583;48.714;9.386;2023-04-15T00:19:58;8.80;62.70
44851;DHT22;30583;48.714;9.386;2023-04-15T00:22:25;8.90;63.00
44851;DHT22;30583;48.714;9.386;2023-04-15T00:24:52;9.10;62.40
44851;DHT22;30583;48.714;9.386;2023-04-15T00:27:18;8.90;62.70
44851;DHT22;30583;48.714;9.386;2023-04-15T00:29:44;9.00;63.00
44851;DHT22;30583;48.714;9.386;2023-04-15T00:32:09;8.70;63.40
44851;DHT22;30583;48.714;9.386;2023-04-15T00:34:35;8.90;63.50
44851;DHT22;30583;48.714;9.386;2023-04-15T00:37:01;9.10;62.40
44851;DHT22;30583;48.714;9.386;2023-04-15T00:39:27;8.40;64.30
44851;DHT22;30583;48.714;9.386;2023-04-15T00:41:52;7.90;65.00
44851;DHT22;30583;48.714;9.386;2023-04-15T00:44:18;8.10;65.20
44851;DHT22;30583;48.714;9.386;2023-04-15T00:46:44;7.80;65.10
44851;DHT22;30583;48.714;9.386;2023-04-15T00:49:11;8.10;64.30
44851;DHT22;30583;48.714;9.386;2023-04-15T00:51:37;7.80;65.10
44851;DHT22;30583;48.714;9.386;2023-04-15T00:54:04;7.80;64.30
44851;DHT22;30583;48.714;9.386;2023-04-15T00:56:30;7.30;66.30
44851;DHT22;30583;48.714;9.386;2023-04-15T00:58:59;7.50;66.20
44851;DHT22;30583;48.714;9.386;2023-04-15T01:01:26;7.70;64.60
44851;DHT22;30583;48.714;9.386;2023-04-15T01:03:51;8.10;64.50
44851;DHT22;30583;48.714;9.386;2023-04-15T01:06:17;8.20;64.10
44851;DHT22;30583;48.714;9.386;2023-04-15T01:08:43;8.70;62.30
44851;DHT22;30583;48.714;9.386;2023-04-15T01:11:12;8.60;61.70
44851;DHT22;30583;48.714;9.386;2023-04-15T01:13:38;8.70;61.70
44851;DHT22;30583;48.714;9.386;2023-04-15T01:16:04;8.70;61.70
44851;DHT22;30583;48.714;9.386;2023-04-15T01:18:29;8.80;61.50
44851;DHT22;30583;48.714;9.386;2023-04-15T01:20:56;8.70;61.30
44851;DHT22;30583;48.714;9.386;2023-04-15T01:23:22;8.50;62.40
44851;DHT22;30583;48.714;9.386;2023-04-15T01:25:48;8.60;61.90
44851;DHT22;30583;48.714;9.386;2023-04-15T01:28:14;8.70;61.60
44851;DHT22;30583;48.714;9.386;2023-04-15T01:30:40;8.60;61.50
44851;DHT22;30583;48.714;9.386;2023-04-15T01:33:06;8.50;61.80
44851;DHT22;30583;48.714;9.386;2023-04-15T01:35:32;8.00;63.00
44851;DHT22;30583;48.714;9.386;2023-04-15T01:38:07;7.70;64.30
44851;DHT22;30583;48.714;9.386;2023-04-15T01:40:33;8.00;62.80
44851;DHT22;30583;48.714;9.386;2023-04-15T01:43:00;8.20;62.70
44851;DHT22;30583;48.714;9.386;2023-04-15T01:45:26;8.00;63.20
44851;DHT22;30583;48.714;9.386;2023-04-15T01:47:52;7.90;63.60
44851;DHT22;30583;48.714;9.386;2023-04-15T01:50:18;7.20;65.80
44851;DHT22;30583;48.714;9.386;2023-04-15T01:52:45;7.50;64.60
44851;DHT22;30583;48.714;9.386;2023-04-15T01:55:11;7.40;64.80
44851;DHT22;30583;48.714;9.386;2023-04-15T01:57:37;7.30;64.80
44851;DHT22;30583;48.714;9.386;2023-04-15T02:00:02;7.90;63.50
44851;DHT22;30583;48.714;9.386;2023-04-15T02:02:28;7.50;65.00
44851;DHT22;30583;48.714;9.386;2023-04-15T02:04:54;7.70;64.20
44851;DHT22;30583;48.714;9.386;2023-04-15T02:07:20;8.10;63.10
44851;DHT22;30583;48.714;9.386;2023-04-15T02:09:46;8.20;62.60
44851;DHT22;30583;48.714;9.386;2023-04-15T02:12:11;7.60;64.30
44851;DHT22;30583;48.714;9.386;2023-04-15T02:14:37;7.80;63.40
44851;DHT22;30583;48.714;9.386;2023-04-15T02:17:03;7.60;63.70
44851;DHT22;30583;48.714;9.386;2023-04-15T02:19:33;7.30;64.30
44851;DHT22;30583;48.714;9.386;2023-04-15T02:21:59;6.80;66.10
44851;DHT22;30583;48.714;9.386;2023-04-15T02:24:26;6.90;66.40
44851;DHT22;30583;48.714;9.386;2023-04-15T02:26:52;7.40;65.00
44851;DHT22;30583;48.714;9.386;2023-04-15T02:29:17;7.40;64.80
44851;DHT22;30583;48.714;9.386;2023-04-15T02:31:43;7.40;64.80
44851;DHT22;30583;48.714;9.386;2023-04-15T02:34:09;7.30;64.70
44851;DHT22;30583;48.714;9.386;2023-04-15T02:36:35;7.20;65.50
44851;DHT22;30583;48.714;9.386;2023-04-15T02:39:01;6.90;66.60
44851;DHT22;30583;48.714;9.386;2023-04-15T02:41:27;7.10;66.20
44851;DHT22;30583;48.714;9.386;2023-04-15T02:43:54;7.30;65.10
44851;DHT22;30583;48.714;9.386;2023-04-15T02:46:20;7.10;65.80
44851;DHT22;30583;48.714;9.386;2023-04-15T02:48:47;7.20;65.70
44851;DHT22;30583;48.714;9.386;2023-04-15T02:51:22;6.70;65.80
44851;DHT22;30583;48.714;9.386;2023-04-15T02:53:48;6.20;68.30
44851;DHT22;30583;48.714;9.386;2023-04-15T02:56:14;6.80;66.50
44851;DHT22;30583;48.714;9.386;2023-04-15T02:58:43;7.00;66.10
44851;DHT22;30583;48.714;9.386;2023-04-15T03:01:09;7.40;64.50
44851;DHT22;30583;48.714;9.386;2023-04-15T03:03:35;7.40;64.10
44851;DHT22;30583;48.714;9.386;2023-04-15T03:06:01;7.50;63.70
44851;DHT22;30583;48.714;9.386;2023-04-15T03:08:27;7.10;64.20
44851;DHT22;30583;48.714;9.386;2023-04-15T03:10:52;6.50;66.40
44851;DHT22;30583;48.714;9.386;2023-04-15T03:13:19;6.30;68.20
44851;DHT22;30583;48.714;9.386;2023-04-15T03:15:48;6.30;67.50
44851;DHT22;30583;48.714;9.386;2023-04-15T03:18:13;6.70;67.40
44851;DHT22;30583;48.714;9.386;2023-04-15T03:20:39;7.40;64.70
44851;DHT22;30583;48.714;9.386;2023-04-15T03:23:05;7.70;63.40
44851;DHT22;30583;48.714;9.386;2023-04-15T03:25:30;7.30;63.70
44851;DHT22;30583;48.714;9.386;2023-04-15T03:27:56;7.20;64.90
44851;DHT22;30583;48.714;9.386;2023-04-15T03:30:22;7.50;63.80
44851;DHT22;30583;48.714;9.386;2023-04-15T03:32:48;7.20;64.40
44851;DHT22;30583;48.714;9.386;2023-04-15T03:35:13;7.10;64.80
44851;DHT22;30583;48.714;9.386;2023-04-15T03:37:39;6.70;66.40
44851;DHT22;30583;48.714;9.386;2023-04-15T03:40:05;7.00;65.70
44851;DHT22;30583;48.714;9.386;2023-04-15T03:42:31;7.10;66.10
44851;DHT22;30583;48.714;9.386;2023-04-15T03:44:57;7.60;64.50
44851;DHT22;30583;48.714;9.386;2023-04-15T03:47:22;7.70;63.90
44851;DHT22;30583;48.714;9.386;2023-04-15T03:49:48;7.50;64.90
44851;DHT22;30583;48.714;9.386;2023-04-15T03:52:13;7.40;64.90
44851;DHT22;30583;48.714;9.386;2023-04-15T03:54:39;7.40;64.80
44851;DHT22;30583;48.714;9.386;2023-04-15T03:57:04;7.40;65.10
44851;DHT22;30583;48.714;9.386;2023-04-15T03:59:30;7.60;64.60
44851;DHT22;30583;48.714;9.386;2023-04-15T04:01:56;7.70;63.80
44851;DHT22;30583;48.714;9.386;2023-04-15T04:04:22;7.20;64.90
44851;DHT22;30583;48.714;9.386;2023-04-15T04:06:47;7.20;65.30
44851;DHT22;30583;48.714;9.386;2023-04-15T04:09:13;6.70;66.10
44851;DHT22;30583;48.714;9.386;2023-04-15T04:11:38;6.30;68.20
44851;DHT22;30583;48.714;9.386;2023-04-15T04:14:04;6.20;68.30
44851;DHT22;30583;48.714;9.386;2023-04-15T04:16:30;6.70;67.00
44851;DHT22;30583;48.714;9.386;2023-04-15T04:18:55;7.10;66.00
44851;DHT22;30583;48.714;9.386;2023-04-15T04:21:21;7.30;65.00
44851;DHT22;30583;48.714;9.386;2023-04-15T04:23:46;7.40;63.90
44851;DHT22;30583;48.714;9.386;2023-04-15T04:26:12;6.50;66.20
44851;DHT22;30583;48.714;9.386;2023-04-15T04:28:38;7.10;65.60
44851;DHT22;30583;48.714;9.386;2023-04-15T04:31:05;7.20;64.70
44851;DHT22;30583;48.714;9.386;2023-04-15T04:33:32;7.20;65.00
44851;DHT22;30583;48.714;9.386;2023-04-15T04:35:57;7.10;65.10
44851;DHT22;30583;48.714;9.386;2023-04-15T04:38:23;7.10;64.70
44851;DHT22;30583;48.714;9.386;2023-04-15T04:40:48;6.80;65.50
44851;DHT22;30583;48.714;9.386;2023-04-15T04:43:14;6.80;66.40
44851;DHT22;30583;48.714;9.386;2023-04-15T04:45:40;6.40;66.30
44851;DHT22;30583;48.714;9.386;2023-04-15T04:48:06;6.70;66.50
44851;DHT22;30583;48.714;9.386;2023-04-15T04:50:33;7.30;64.20
44851;DHT22;30583;48.714;9.386;2023-04-15T04:52:59;7.10;64.90
44851;DHT22;30583;48.714;9.386;2023-04-15T04:55:26;6.90;64.40
44851;DHT22;30583;48.714;9.386;2023-04-15T04:57:51;6.70;66.40
44851;DHT22;30583;48.714;9.386;2023-04-15T05:00:17;7.20;64.70
44851;DHT22;30583;48.714;9.386;2023-04-15T05:02:43;6.60;65.10
44851;DHT22;30583;48.714;9.386;2023-04-15T05:05:09;7.10;64.70
44851;DHT22;30583;48.714;9.386;2023-04-15T05:07:36;7.00;64.60
44851;DHT22;30583;48.714;9.386;2023-04-15T05:10:02;6.80;64.10
44851;DHT22;30583;48.714;9.386;2023-04-15T05:12:28;6.20;66.60
44851;DHT22;30583;48.714;9.386;2023-04-15T05:14:53;6.90;64.90
44851;DHT22;30583;48.714;9.386;2023-04-15T05:17:19;7.20;63.40
44851;DHT22;30583;48.714;9.386;2023-04-15T05:19:44;7.30;62.90
44851;DHT22;30583;48.714;9.386;2023-04-15T05:22:10;6.70;63.90
44851;DHT22;30583;48.714;9.386;2023-04-15T05:24:36;7.20;63.40
44851;DHT22;30583;48.714;9.386;2023-04-15T05:27:01;7.30;62.70
44851;DHT22;30583;48.714;9.386;2023-04-15T05:29:28;7.10;63.20
44851;DHT22;30583;48.714;9.386;2023-04-15T05:31:53;7.00;63.90
44851;DHT22;30583;48.714;9.386;2023-04-15T05:34:19;6.40;65.00
44851;DHT22;30583;48.714;9.386;2023-04-15T05:36:44;7.00;64.20
44851;DHT22;30583;48.714;9.386;2023-04-15T05:39:10;7.10;63.20
44851;DHT22;30583;48.714;9.386;2023-04-15T05:41:36;6.90;64.20
44851;DHT22;30583;48.714;9.386;2023-04-15T05:44:02;7.00;63.70
44851;DHT22;30583;48.714;9.386;2023-04-15T05:46:28;7.20;63.40
44851;DHT22;30583;48.714;9.386;2023-04-15T05:48:53;7.50;63.10
44851;DHT22;30583;48.714;9.386;2023-04-15T05:51:19;7.70;62.50
44851;DHT22;30583;48.714;9.386;2023-04-15T05:53:44;8.00;61.60
44851;DHT22;30583;48.714;9.386;2023-04-15T05:56:10;7.90;61.00
44851;DHT22;30583;48.714;9.386;2023-04-15T05:58:36;7.90;61.20
44851;DHT22;30583;48.714;9.386;2023-04-15T06:01:02;7.90;61.20
44851;DHT22;30583;48.714;9.386;2023-04-15T06:03:28;8.00;60.70
44851;DHT22;30583;48.714;9.386;2023-04-15T06:05:54;7.90;61.00
44851;DHT22;30583;48.714;9.386;2023-04-15T06:08:20;7.70;64.30
44851;DHT22;30583;48.714;9.386;2023-04-15T06:10:46;8.00;62.30
44851;DHT22;30583;48.714;9.386;2023-04-15T06:13:12;8.10;61.60
44851;DHT22;30583;48.714;9.386;2023-04-15T06:15:37;8.20;60.60
44851;DHT22;30583;48.714;9.386;2023-04-15T06:18:03;8.40;60.10
44851;DHT22;30583;48.714;9.386;2023-04-15T06:20:29;7.90;60.70
44851;DHT22;30583;48.714;9.386;2023-04-15T06:22:55;7.80;62.60
44851;DHT22;30583;48.714;9.386;2023-04-15T06:25:21;8.10;61.10
44851;DHT22;30583;48.714;9.386;2023-04-15T06:27:47;8.00;61.30
44851;DHT22;30583;48.714;9.386;2023-04-15T06:30:13;8.10;61.20
44851;DHT22;30583;48.714;9.386;2023-04-15T06:32:38;8.10;61.30
44851;DHT22;30583;48.714;9.386;2023-04-15T06:35:04;8.10;60.90
44851;DHT22;30583;48.714;9.386;2023-04-15T06:37:30;8.20;60.80
44851;DHT22;30583;48.714;9.386;2023-04-15T06:39:57;8.00;61.00
44851;DHT22;30583;48.714;9.386;2023-04-15T06:42:22;8.30;60.50
44851;DHT22;30583;48.714;9.386;2023-04-15T06:44:48;8.00;61.30
44851;DHT22;30583;48.714;9.386;2023-04-15T06:47:14;8.20;61.60
44851;DHT22;30583;48.714;9.386;2023-04-15T06:49:39;7.90;61.60
44851;DHT22;30583;48.714;9.386;2023-04-15T06:52:05;8.00;61.70
44851;DHT22;30583;48.714;9.386;2023-04-15T06:54:31;7.70;62.10
44851;DHT22;30583;48.714;9.386;2023-04-15T06:56:56;7.70;63.60
44851;DHT22;30583;48.714;9.386;2023-04-15T06:59:22;7.70;63.20
44851;DHT22;30583;48.714;9.386;2023-04-15T07:01:48;7.70;63.20
44851;DHT22;30583;48.714;9.386;2023-04-15T07:04:14;8.00;62.50
44851;DHT22;30583;48.714;9.386;2023-04-15T07:06:39;8.40;61.30
44851;DHT22;30583;48.714;9.386;2023-04-15T07:09:06;8.70;60.80
44851;DHT22;30583;48.714;9.386;2023-04-15T07:11:31;10.90;80.80
44851;DHT22;30583;48.714;9.386;2023-04-15T07:13:57;15.40;57.40
44851;DHT22;30583;48.714;9.386;2023-04-15T07:16:23;16.30;52.40
44851;DHT22;30583;48.714;9.386;2023-04-15T07:18:48;16.80;47.90
44851;DHT22;30583;48.714;9.386;2023-04-15T07:21:14;16.60;43.90
44851;DHT22;30583;48.714;9.386;2023-04-15T07:23:41;12.00;50.10
44851;DHT22;30583;48.714;9.386;2023-04-15T07:26:07;10.20;55.40
44851;DHT22;30583;48.714;9.386;2023-04-15T07:28:33;9.60;58.50
44851;DHT22;30583;48.714;9.386;2023-04-15T07:30:58;9.40;59.30
44851;DHT22;30583;48.714;9.386;2023-04-15T07:33:24;9.40;60.00
44851;DHT22;30583;48.714;9.386;2023-04-15T07:35:50;9.40;59.50
44851;DHT22;30583;48.714;9.386;2023-04-15T07:38:16;9.40;59.90
44851;DHT22;30583;48.714;9.386;2023-04-15T07:40:41;9.30;60.20
44851;DHT22;30583;48.714;9.386;2023-04-15T07:43:07;8.80;61.50
44851;DHT22;30583;48.714;9.386;2023-04-15T07:45:33;9.10;61.40
44851;DHT22;30583;48.714;9.386;2023-04-15T07:48:00;9.20;60.60
44851;DHT22;30583;48.714;9.386;2023-04-15T07:50:26;9.30;60.90
44851;DHT22;30583;48.714;9.386;2023-04-15T07:52:52;9.20;62.20
44851;DHT22;30583;48.714;9.386;2023-04-15T07:55:18;9.50;61.50
44851;DHT22;30583;48.714;9.386;2023-04-15T07:57:46;9.30;61.50
44851;DHT22;30583;48.714;9.386;2023-04-15T08:00:12;9.50;60.80
44851;DHT22;30583;48.714;9.386;2023-04-15T08:02:38;9.60;61.00
44851;DHT22;30583;48.714;9.386;2023-04-15T08:05:04;9.90;60.50
44851;DHT22;30583;48.714;9.386;2023-04-15T08:07:30;9.90;59.80
44851;DHT22;30583;48.714;9.386;2023-04-15T08:09:56;9.80;60.60
44851;DHT22;30583;48.714;9.386;2023-04-15T08:12:22;9.90;60.60
44851;DHT22;30583;48.714;9.386;2023-04-15T08:14:49;10.00;60.90
44851;DHT22;30583;48.714;9.386;2023-04-15T08:17:15;10.40;59.30
44851;DHT22;30583;48.714;9.386;2023-04-15T08:19:41;10.70;59.00
44851;DHT22;30583;48.714;9.386;2023-04-15T08:22:07;10.70;58.50
44851;DHT22;30583;48.714;9.386;2023-04-15T08:24:32;10.40;60.20
44851;DHT22;30583;48.714;9.386;2023-04-15T08:26:58;10.50;59.90
44851;DHT22;30583;48.714;9.386;2023-04-15T08:29:24;10.70;59.40
44851;DHT22;30583;48.714;9.386;2023-04-15T08:31:50;11.10;59.10
44851;DHT22;30583;48.714;9.386;2023-04-15T08:34:15;11.10;59.00
44851;DHT22;30583;48.714;9.386;2023-04-15T08:36:42;10.70;59.30
44851;DHT22;30583;48.714;9.386;2023-04-15T08:39:08;10.60;60.70
44851;DHT22;30583;48.714;9.386;2023-04-15T08:41:47;11.10;60.00
44851;DHT22;30583;48.714;9.386;2023-04-15T08:44:16;11.70;57.10
44851;DHT22;30583;48.714;9.386;2023-04-15T08:46:42;12.10;55.90
44851;DHT22;30583;48.714;9.386;2023-04-15T08:49:12;12.20;56.90
44851;DHT22;30583;48.714;9.386;2023-04-15T08:51:41;12.40;56.30
44851;DHT22;30583;48.714;9.386;2023-04-15T08:54:08;12.60;56.30
44851;DHT22;30583;48.714;9.386;2023-04-15T08:56:33;12.70;55.50
44851;DHT22;30583;48.714;9.386;2023-04-15T08:59:00;13.20;57.00
44851;DHT22;30583;48.714;9.386;2023-04-15T09:01:26;17.00;52.70
44851;DHT22;30583;48.714;9.386;2023-04-15T09:03:53;18.40;47.40
44851;DHT22;30583;48.714;9.386;2023-04-15T09:06:20;18.70;45.70
44851;DHT22;30583;48.714;9.386;2023-04-15T09:08:46;19.00;44.50
44851;DHT22;30583;48.714;9.386;2023-04-15T09:11:12;19.10;43.50
44851;DHT22;30583;48.714;9.386;2023-04-15T09:13:38;18.60;44.70
44851;DHT22;30583;48.714;9.386;2023-04-15T09:16:05;19.30;42.60
44851;DHT22;30583;48.714;9.386;2023-04-15T09:18:32;18.20;41.10
44851;DHT22;30583;48.714;9.386;2023-04-15T09:21:15;15.20;45.10
44851;DHT22;30583;48.714;9.386;2023-04-15T09:23:57;14.30;46.80
44851;DHT22;30583;48.714;9.386;2023-04-15T09:26:37;13.70;47.60
44851;DHT22;30583;48.714;9.386;2023-04-15T09:29:09;14.40;47.10
44851;DHT22;30583;48.714;9.386;2023-04-15T09:31:37;14.20;47.70
44851;DHT22;30583;48.714;9.386;2023-04-15T09:34:04;14.20;48.50
44851;DHT22;30583;48.714;9.386;2023-04-15T09:39:13;14.20;49.20
44851;DHT22;30583;48.714;9.386;2023-04-15T09:41:39;14.30;49.20
44851;DHT22;30583;48.714;9.386;2023-04-15T09:44:05;14.20;47.90
44851;DHT22;30583;48.714;9.386;2023-04-15T09:46:41;13.70;48.30
44851;DHT22;30583;48.714;9.386;2023-04-15T09:49:08;13.80;49.70
44851;DHT22;30583;48.714;9.386;2023-04-15T09:51:34;14.10;49.60
44851;DHT22;30583;48.714;9.386;2023-04-15T09:54:00;14.10;50.60
44851;DHT22;30583;48.714;9.386;2023-04-15T09:56:35;14.00;48.80
44851;DHT22;30583;48.714;9.386;2023-04-15T09:59:07;14.00;47.50
44851;DHT22;30583;48.714;9.386;2023-04-15T10:01:33;14.20;47.40
44851;DHT22;30583;48.714;9.386;2023-04-15T10:04:02;14.20;47.40
44851;DHT22;30583;48.714;9.386;2023-04-15T10:06:28;14.30;46.70
44851;DHT22;30583;48.714;9.386;2023-04-15T10:08:58;14.40;46.20
44851;DHT22;30583;48.714;9.386;2023-04-15T10:11:25;14.60;47.90
44851;DHT22;30583;48.714;9.386;2023-04-15T10:13:53;14.70;47.80
44851;DHT22;30583;48.714;9.386;2023-04-15T10:16:21;14.80;47.30
44851;DHT22;30583;48.714;9.386;2023-04-15T10:18:52;14.40;45.90
44851;DHT22;30583;48.714;9.386;2023-04-15T10:21:20;13.90;46.80
44851;DHT22;30583;48.714;9.386;2023-04-15T10:23:47;13.80;47.00
44851;DHT22;30583;48.714;9.386;2023-04-15T10:26:13;13.90;48.00
44851;DHT22;30583;48.714;9.386;2023-04-15T10:28:40;14.20;47.20
44851;DHT22;30583;48.714;9.386;2023-04-15T10:31:06;14.30;46.80
44851;DHT22;30583;48.714;9.386;2023-04-15T10:33:33;14.40;45.10
44851;DHT22;30583;48.714;9.386;2023-04-15T10:35:59;14.60;47.90
44851;DHT22;30583;48.714;9.386;2023-04-15T10:38:37;14.80;45.80
44851;DHT22;30583;48.714;9.386;2023-04-15T10:41:23;15.00;45.40
44851;DHT22;30583;48.714;9.386;2023-04-15T10:43:50;15.00;45.40
44851;DHT22;30583;48.714;9.386;2023-04-15T10:48:53;15.10;46.10
44851;DHT22;30583;48.714;9.386;2023-04-15T10:51:29;15.00;45.40
44851;DHT22;30583;48.714;9.386;2023-04-15T10:53:58;14.70;46.40
44851;DHT22;30583;48.714;9.386;2023-04-15T10:56:24;14.70;47.10
44851;DHT22;30583;48.714;9.386;2023-04-15T10:58:50;15.00;49.10
44851;DHT22;30583;48.714;9.386;2023-04-15T11:01:19;14.90;46.50
44851;DHT22;30583;48.714;9.386;2023-04-15T11:03:45;15.00;46.40
44851;DHT22;30583;48.714;9.386;2023-04-15T11:06:11;14.80;45.70
44851;DHT22;30583;48.714;9.386;2023-04-15T11:08:56;15.10;46.40
44851;DHT22;30583;48.714;9.386;2023-04-15T11:14:27;15.20;46.50
44851;DHT22;30583;48.714;9.386;2023-04-15T11:16:53;14.90;45.70
44851;DHT22;30583;48.714;9.386;2023-04-15T11:19:18;15.00;46.50
44851;DHT22;30583;48.714;9.386;2023-04-15T11:21:44;15.20;45.10
44851;DHT22;30583;48.714;9.386;2023-04-15T11:24:10;14.90;46.30
44851;DHT22;30583;48.714;9.386;2023-04-15T11:26:35;15.00;44.40
44851;DHT22;30583;48.714;9.386;2023-04-15T11:29:01;14.70;46.20
44851;DHT22;30583;48.714;9.386;2023-04-15T11:31:27;14.70;46.10
44851;DHT22;30583;48.714;9.386;2023-04-15T11:33:59;14.80;44.60
44851;DHT22;30583;48.714;9.386;2023-04-15T11:36:28;14.70;47.80
44851;DHT22;30583;48.714;9.386;2023-04-15T11:38:54;14.70;47.70
44851;DHT22;30583;48.714;9.386;2023-04-15T11:41:20;14.70;47.00
44851;DHT22;30583;48.714;9.386;2023-04-15T11:43:47;14.40;47.60
44851;DHT22;30583;48.714;9.386;2023-04-15T11:46:12;14.20;46.80
44851;DHT22;30583;48.714;9.386;2023-04-15T11:48:42;14.70;47.80
44851;DHT22;30583;48.714;9.386;2023-04-15T11:51:08;14.90;47.30
44851;DHT22;30583;48.714;9.386;2023-04-15T11:53:46;15.00;46.70
44851;DHT22;30583;48.714;9.386;2023-04-15T11:56:19;15.20;46.00
44851;DHT22;30583;48.714;9.386;2023-04-15T11:58:45;15.20;45.40
44851;DHT22;30583;48.714;9.386;2023-04-15T12:01:11;15.00;47.40
44851;DHT22;30583;48.714;9.386;2023-04-15T12:03:47;14.70;46.10
44851;DHT22;30583;48.714;9.386;2023-04-15T12:06:23;14.60;47.30
44851;DHT22;30583;48.714;9.386;2023-04-15T12:13:54;14.30;45.20
44851;DHT22;30583;48.714;9.386;2023-04-15T12:16:21;13.90;45.00
44851;DHT22;30583;48.714;9.386;2023-04-15T12:18:55;14.00;47.00
44851;DHT22;30583;48.714;9.386;2023-04-15T12:21:22;14.00;48.40
44851;DHT22;30583;48.714;9.386;2023-04-15T12:23:50;14.00;48.40
44851;DHT22;30583;48.714;9.386;2023-04-15T12:26:16;13.80;49.80
44851;DHT22;30583;48.714;9.386;2023-04-15T12:28:43;13.70;50.80
44851;DHT22;30583;48.714;9.386;2023-04-15T12:31:10;13.50;51.40
44851;DHT22;30583;48.714;9.386;2023-04-15T12:33:36;13.90;51.30
44851;DHT22;30583;48.714;9.386;2023-04-15T12:36:02;14.20;50.90
44851;DHT22;30583;48.714;9.386;2023-04-15T12:38:29;14.20;51.70
44851;DHT22;30583;48.714;9.386;2023-04-15T12:40:57;14.30;52.90
44851;DHT22;30583;48.714;9.386;2023-04-15T12:43:22;14.20;52.50
44851;DHT22;30583;48.714;9.386;2023-04-15T12:45:48;14.00;50.20
44851;DHT22;30583;48.714;9.386;2023-04-15T12:48:14;14.20;51.00
44851;DHT22;30583;48.714;9.386;2023-04-15T12:50:39;14.00;49.00
44851;DHT22;30583;48.714;9.386;2023-04-15T12:53:05;14.00;50.10
44851;DHT22;30583;48.714;9.386;2023-04-15T12:55:31;14.10;51.30
44851;DHT22;30583;48.714;9.386;2023-04-15T12:57:57;13.40;54.90
44851;DHT22;30583;48.714;9.386;2023-04-15T13:00:22;12.80;56.00
44851;DHT22;30583;48.714;9.386;2023-04-15T13:02:48;12.90;55.70
44851;DHT22;30583;48.714;9.386;2023-04-15T13:05:14;13.30;55.00
44851;DHT22;30583;48.714;9.386;2023-04-15T13:07:40;12.90;56.40
44851;DHT22;30583;48.714;9.386;2023-04-15T13:10:07;12.80;56.70
44851;DHT22;30583;48.714;9.386;2023-04-15T13:12:32;12.50;57.90
44851;DHT22;30583;48.714;9.386;2023-04-15T13:15:04;12.80;59.00
44851;DHT22;30583;48.714;9.386;2023-04-15T13:17:30;12.60;59.60
44851;DHT22;30583;48.714;9.386;2023-04-15T13:19:56;12.40;60.10
44851;DHT22;30583;48.714;9.386;2023-04-15T13:22:21;12.70;59.00
44851;DHT22;30583;48.714;9.386;2023-04-15T13:24:47;13.00;60.00
44851;DHT22;30583;48.714;9.386;2023-04-15T13:27:12;13.10;58.60
44851;DHT22;30583;48.714;9.386;2023-04-15T13:29:38;13.20;58.30
44851;DHT22;30583;48.714;9.386;2023-04-15T13:32:05;13.10;57.70
44851;DHT22;30583;48.714;9.386;2023-04-15T13:34:30;13.40;57.00
44851;DHT22;30583;48.714;9.386;2023-04-15T13:36:56;13.20;56.60
44851;DHT22;30583;48.714;9.386;2023-04-15T13:39:22;13.30;55.50
44851;DHT22;30583;48.714;9.386;2023-04-15T13:41:47;13.60;56.80
44851;DHT22;30583;48.714;9.386;2023-04-15T13:44:13;13.60;54.60
44851;DHT22;30583;48.714;9.386;2023-04-15T13:46:39;13.80;54.60
44851;DHT22;30583;48.714;9.386;2023-04-15T13:49:06;13.70;55.80
44851;DHT22;30583;48.714;9.386;2023-04-15T13:51:32;14.10;53.90
44851;DHT22;30583;48.714;9.386;2023-04-15T13:53:57;13.70;49.30
44851;DHT22;30583;48.714;9.386;2023-04-15T13:56:23;13.30;45.90
44851;DHT22;30583;48.714;9.386;2023-04-15T13:58:48;13.20;47.50
44851;DHT22;30583;48.714;9.386;2023-04-15T14:01:14;13.10;47.10
44851;DHT22;30583;48.714;9.386;2023-04-15T14:03:40;13.60;49.10
44851;DHT22;30583;48.714;9.386;2023-04-15T14:06:06;13.00;48.50
44851;DHT22;30583;48.714;9.386;2023-04-15T14:08:32;13.40;49.30
44851;DHT22;30583;48.714;9.386;2023-04-15T14:10:57;13.50;49.20
44851;DHT22;30583;48.714;9.386;2023-04-15T14:13:23;13.40;49.00
44851;DHT22;30583;48.714;9.386;2023-04-15T14:15:49;13.20;52.30
44851;DHT22;30583;48.714;9.386;2023-04-15T14:18:14;13.00;44.00
44851;DHT22;30583;48.714;9.386;2023-04-15T14:20:40;13.00;44.90
44851;DHT22;30583;48.714;9.386;2023-04-15T14:23:06;13.20;43.80
44851;DHT22;30583;48.714;9.386;2023-04-15T14:25:31;13.30;42.30
44851;DHT22;30583;48.714;9.386;2023-04-15T14:27:57;13.50;43.20
44851;DHT22;30583;48.714;9.386;2023-04-15T14:30:22;13.60;42.60
44851;DHT22;30583;48.714;9.386;2023-04-15T14:32:48;13.40;41.90
44851;DHT22;30583;48.714;9.386;2023-04-15T14:35:13;13.30;44.30
44851;DHT22;30583;48.714;9.386;2023-04-15T14:37:39;13.60;44.00
44851;DHT22;30583;48.714;9.386;2023-04-15T14:40:05;13.50;44.90
44851;DHT22;30583;48.714;9.386;2023-04-15T14:42:31;13.50;45.10
44851;DHT22;30583;48.714;9.386;2023-04-15T14:44:57;13.40;43.40
44851;DHT22;30583;48.714;9.386;2023-04-15T14:47:22;13.40;45.20
44851;DHT22;30583;48.714;9.386;2023-04-15T14:49:48;13.40;44.90
44851;DHT22;30583;48.714;9.386;2023-04-15T14:52:14;13.40;46.10
44851;DHT22;30583;48.714;9.386;2023-04-15T14:54:39;13.40;43.40
44851;DHT22;30583;48.714;9.386;2023-04-15T14:57:05;13.20;43.50
44851;DHT22;30583;48.714;9.386;2023-04-15T14:59:31;12.90;43.60
44851;DHT22;30583;48.714;9.386;2023-04-15T15:01:56;12.70;44.90
44851;DHT22;30583;48.714;9.386;2023-04-15T15:04:22;12.70;44.40
44851;DHT22;30583;48.714;9.386;2023-04-15T15:06:47;12.80;44.50
44851;DHT22;30583;48.714;9.386;2023-04-15T15:09:13;13.00;44.80
44851;DHT22;30583;48.714;9.386;2023-04-15T15:11:38;12.90;45.30
44851;DHT22;30583;48.714;9.386;2023-04-15T15:14:04;12.90;44.90
44851;DHT22;30583;48.714;9.386;2023-04-15T15:16:30;13.00;44.50
44851;DHT22;30583;48.714;9.386;2023-04-15T15:18:55;12.60;45.80
44851;DHT22;30583;48.714;9.386;2023-04-15T15:21:21;12.70;45.60
44851;DHT22;30583;48.714;9.386;2023-04-15T15:23:47;12.60;46.70
44851;DHT22;30583;48.714;9.386;2023-04-15T15:26:13;13.00;46.70
44851;DHT22;30583;48.714;9.386;2023-04-15T15:28:38;13.00;46.20
44851;DHT22;30583;48.714;9.386;2023-04-15T15:31:04;12.80;48.60
44851;DHT22;30583;48.714;9.386;2023-04-15T15:33:30;12.80;47.80
44851;DHT22;30583;48.714;9.386;2023-04-15T15:35:57;13.20;47.30
44851;DHT22;30583;48.714;9.386;2023-04-15T15:38:22;12.70;48.30
44851;DHT22;30583;48.714;9.386;2023-04-15T15:40:48;12.60;48.50
44851;DHT22;30583;48.714;9.386;2023-04-15T15:43:13;12.40;50.50
44851;DHT22;30583;48.714;9.386;2023-04-15T15:45:39;12.20;50.10